Latest Coastal Weather Observations for Hogan Island

IDT60701

Issued at 4:15 am EST Thursday 2 October 2014 (issued every 10 minutes, with the page automatically refreshed every 10 minutes)

About coastal observations | Map of coastal stations | Coastal observations for TAS | Marine services | Other Formats
Station Details ID: 200838 Name: HOGAN ISLAND Lat: -39.22 Lon: 146.98 Height: 116.0 m
Data from the previous 72 hours. | See also: Recent months at Hogan Island
Date/Time
EST
Temp

°C
Wind Pressure Rain
since 9am
mm
Weather Cloud Vis
km
Sea
Height
m
Swell
Dir
 
Speed
knots
Gust
knots
hPa Trend Height
m
Period
s
Dir
02/04:00am 10.7 W 36 45 1017.7 - 0.0 - - - - - - -
02/03:44am 11.4 W 35 45 1017.6 - 0.0 - - - - - - -
02/03:30am 11.4 W 38 44 1017.8 - 0.0 - - - - - - -
02/03:00am 11.5 W 36 43 1018.3 - 0.0 - - - - - - -
02/02:30am 11.3 W 36 41 1018.5 - 0.0 - - - - - - -
02/02:00am 10.9 W 33 40 1018.7 - 0.0 - - - - - - -
02/01:30am 11.4 W 34 39 1019.4 - 0.0 - - - - - - -
02/01:00am 11.4 W 34 41 1019.5 - 0.0 - - - - - - -
02/12:30am 11.8 W 34 39 1019.9 - 0.0 - - - - - - -
02/12:00am 11.7 W 35 41 1019.9 - 0.0 - - - - - - -
 
Date/Time
EST
Temp

°C
Wind Pressure Rain
since 9am
mm
Weather Cloud Vis
km
Sea
Height
m
Swell
Dir
 
Speed
knots
Gust
knots
hPa Trend Height
m
Period
s
Dir
01/11:30pm 11.6 W 33 38 1020.1 - 0.0 - - - - - - -
01/11:00pm 11.5 W 32 38 1020.5 - 0.0 - - - - - - -
01/10:30pm 11.3 W 30 37 1020.6 - 0.0 - - - - - - -
01/10:00pm 11.3 W 31 35 1020.6 - 0.0 - - - - - - -
01/09:30pm 11.2 W 31 35 1021.1 - 0.0 - - - - - - -
01/09:00pm 11.1 WSW 30 35 1021.4 - 0.0 - - - - - - -
01/08:30pm 11.1 WSW 35 41 1021.2 - 0.0 - - - - - - -
01/08:00pm 11.2 WSW 35 42 1021.0 - 0.0 - - - - - - -
01/07:30pm 11.1 W 35 41 1020.8 - 0.0 - - - - - - -
01/07:00pm 11.1 W 38 43 1020.1 - 0.0 - - - - - - -
01/06:30pm 11.2 W 39 43 1020.0 - 0.0 - - - - - - -
01/06:00pm 11.0 W 38 44 1019.6 - 0.0 - - - - - - -
01/05:30pm 11.3 W 34 40 1020.1 - 0.0 - - - - - - -
01/05:00pm 11.6 W 34 39 1020.1 - 0.0 - - - - - - -
01/04:30pm 12.1 W 35 39 1019.6 - 0.0 - - - - - - -
01/04:00pm 12.2 W 34 40 1019.5 - 0.0 - - - - - - -
01/03:30pm 13.0 W 33 38 1019.9 - 0.0 - - - - - - -
01/03:00pm 13.0 W 34 39 1019.8 - 0.0 - - - - - - -
01/02:30pm 12.8 W 34 38 1019.7 - 0.0 - - - - - - -
01/02:00pm 12.6 W 29 34 1019.5 - 0.0 - - - - - - -
01/01:30pm 13.5 W 28 34 1019.5 - 0.0 - - - - - - -
01/01:00pm 13.1 W 31 35 1020.0 - 0.0 - - - - - - -
01/12:30pm 13.5 WSW 27 32 1019.9 - 0.0 - - - - - - -
01/12:00pm 12.3 WSW 30 37 1020.0 - 0.0 - - - - - - -
01/11:30am 13.2 WSW 27 31 1019.6 - 0.0 - - - - - - -
01/11:00am 12.4 WSW 28 32 1019.4 - 0.0 - - - - - - -
01/10:30am 12.5 WSW 25 29 1019.6 - 0.0 - - - - - - -
01/10:00am 11.1 WSW 28 41 1018.9 - 0.0 - - - - - - -
01/09:58am 12.2 WSW 26 39 1019.0 - 0.0 - - - - - - -
01/09:30am 12.1 WSW 29 34 1018.9 - 0.0 - - - - - - -
01/09:00am 11.7 WSW 31 37 1018.5 - 9.0 - - - - - - -
01/08:30am 11.5 WSW 29 37 1018.0 - 9.0 - - - - - - -
01/08:00am 10.6 SW 34 40 1017.0 - 9.0 - - - - - - -
01/07:30am 10.2 WSW 35 40 1016.4 - 9.0 - - - - - - -
01/07:00am 10.0 SW 33 39 1015.9 - 9.0 - - - - - - -
01/06:30am 9.7 WSW 35 42 1015.0 - 9.0 - - - - - - -
01/06:00am 9.3 WSW 35 42 1014.2 - 9.0 - - - - - - -
01/05:30am 9.3 SW 36 44 1013.4 - 9.0 - - - - - - -
01/05:00am 8.7 WSW 34 43 1013.0 - 9.0 - - - - - - -
01/04:46am 8.1 WSW 37 47 1012.8 - 9.0 - - - - - - -
01/04:36am 7.4 WSW 40 56 1012.5 - 9.0 - - - - - - -
01/04:33am 7.9 WSW 51 56 1011.7 - 9.0 - - - - - - -
01/04:31am 8.7 WSW 40 51 1011.9 - 9.0 - - - - - - -
01/04:30am 8.8 SW 39 48 1012.2 - 9.0 - - - - - - -
01/04:00am 8.4 WSW 38 46 1011.7 - 9.0 - - - - - - -
01/03:30am 7.2 WSW 35 52 1011.6 - 8.8 - - - - - - -
01/03:21am 7.5 WSW 33 47 1011.1 - 8.4 - - - - - - -
01/03:00am 7.5 SW 30 37 1011.0 - 8.4 - - - - - - -
01/02:42am 6.8 SW 35 53 1011.0 - 8.4 - - - - - - -
01/02:36am 5.9 WSW 41 56 1010.5 - 8.4 - - - - - - -
01/02:32am 6.5 WSW 52 56 1010.0 - 8.2 - - - - - - -
01/02:30am 7.8 WSW 40 55 1010.2 - 8.2 - - - - - - -
01/02:00am 6.6 SW 40 51 1009.9 - 8.0 - - - - - - -
01/01:30am 7.4 WSW 45 57 1009.3 - 7.8 - - - - - - -
01/01:22am 8.5 WSW 40 54 1008.7 - 7.6 - - - - - - -
01/01:00am 8.3 WSW 41 48 1008.2 - 7.6 - - - - - - -
01/12:30am 7.8 WSW 36 55 1008.4 - 7.6 - - - - - - -
01/12:27am 7.5 WSW 38 55 1008.3 - 7.6 - - - - - - -
01/12:23am 8.1 W 51 55 1007.5 - 7.6 - - - - - - -
01/12:21am 8.7 W 38 48 1007.9 - 7.6 - - - - - - -
01/12:00am 8.0 W 39 47 1007.9 - 7.6 - - - - - - -
 
Date/Time
EST
Temp

°C
Wind Pressure Rain
since 9am
mm
Weather Cloud Vis
km
Sea
Height
m
Swell
Dir
 
Speed
knots
Gust
knots
hPa Trend Height
m
Period
s
Dir
30/11:30pm 6.8 W 39 50 1008.4 - 7.6 - - - - - - -
30/11:19pm 6.9 W 35 53 1007.9 - 7.2 - - - - - - -
30/11:17pm 6.7 W 33 59 1008.1 - 7.2 - - - - - - -
30/11:09pm 6.3 W 47 59 1007.1 - 7.0 - - - - - - -
30/11:05pm 7.2 W 48 54 1007.4 - 6.0 - - - - - - -
30/11:03pm 9.5 W 36 48 1007.9 - 6.0 - - - - - - -
30/11:00pm 9.3 W 36 43 1007.9 - 6.0 - - - - - - -
30/10:33pm 8.3 WSW 41 52 1007.7 - 6.0 - - - - - - -
30/10:30pm 8.2 WSW 44 52 1007.5 - 6.0 - - - - - - -
30/10:27pm 8.5 WSW 46 52 1007.3 - 6.0 - - - - - - -
30/10:25pm 9.4 W 31 43 1007.5 - 6.0 - - - - - - -
30/10:00pm 9.8 WSW 35 41 1007.4 - 6.0 - - - - - - -
30/09:30pm 10.6 W 41 47 1006.5 - 6.0 - - - - - - -
30/09:00pm 10.6 W 43 51 1006.3 - 6.0 - - - - - - -
30/08:30pm 10.8 W 42 50 1006.1 - 6.0 - - - - - - -
30/08:09pm 10.4 W 40 50 1005.9 - 6.0 - - - - - - -
30/08:00pm 10.3 W 44 53 1005.4 - 6.0 - - - - - - -
30/07:30pm 10.0 W 45 55 1004.7 - 6.0 - - - - - - -
30/07:16pm 9.2 W 50 61 1004.7 - 6.0 - - - - - - -
30/07:13pm 9.7 W 54 61 1004.1 - 6.0 - - - - - - -
30/07:00pm 10.4 W 42 53 1004.1 - 6.0 - - - - - - -
30/06:40pm 10.0 W 39 49 1004.5 - 6.0 - - - - - - -
30/06:30pm 9.7 W 42 49 1004.4 - 6.0 - - - - - - -
30/06:09pm 8.7 W 45 55 1003.7 - 6.0 - - - - - - -
30/06:00pm 8.8 W 49 57 1003.2 - 5.4 - - - - - - -
30/05:36pm 9.5 W 44 54 1002.8 - 4.8 - - - - - - -
30/05:30pm 8.9 W 47 55 1002.9 - 4.8 - - - - - - -
30/05:17pm 9.1 W 46 65 1001.7 - 4.2 - - - - - - -
30/05:00pm 9.5 W 60 70 1000.6 - 3.8 - - - - - - -
30/04:45pm 10.0 W 57 70 999.9 - 3.8 - - - - - - -
30/04:30pm 10.8 W 49 59 999.7 - 3.8 - - - - - - -
30/04:00pm 10.4 W 51 63 999.1 - 2.6 - - - - - - -
30/03:54pm 10.9 W 49 66 999.5 - 2.0 - - - - - - -
30/03:49pm 10.6 W 51 73 999.2 - 1.6 - - - - - - -
30/03:41pm 10.8 W 63 73 998.4 - 0.6 - - - - - - -
30/03:39pm 11.0 W 64 73 997.3 - 0.2 - - - - - - -
30/03:35pm 12.8 W 51 61 999.0 - 0.0 - - - - - - -
30/03:33pm 13.5 W 52 61 998.8 - 0.0 - - - - - - -
30/03:32pm 14.4 WNW 36 61 998.7 - 0.0 - - - - - - -
30/03:31pm 16.2 WNW 35 48 999.0 - 0.0 - - - - - - -
30/03:30pm 16.4 WNW 34 40 998.8 - 0.0 - - - - - - -
30/03:00pm 18.3 NW 31 39 998.8 - 0.0 - - - - - - -
30/02:39pm 17.3 NW 27 37 999.0 - 0.0 - - - - - - -
30/02:30pm 18.0 NW 28 36 999.3 - 0.0 - - - - - - -
30/02:18pm 17.5 NW 27 37 999.2 - 0.0 - - - - - - -
30/02:00pm 17.3 NW 24 30 999.9 - 0.0 - - - - - - -
30/01:30pm 16.7 NW 26 33 1000.8 - 0.0 - - - - - - -
30/01:00pm 17.0 NNW 20 26 1001.6 - 0.0 - - - - - - -
30/12:30pm 16.6 NNW 21 24 1002.3 - 0.0 - - - - - - -
30/12:00pm 17.0 NNW 24 29 1002.9 - 0.0 - - - - - - -
30/11:30am 16.7 NNW 25 28 1003.4 - 0.0 - - - - - - -
30/11:00am 16.2 NNW 17 25 1004.5 - 0.0 - - - - - - -
30/10:30am 14.9 NNW 18 23 1005.4 - 0.0 - - - - - - -
30/10:00am 15.0 NW 24 30 1005.6 - 0.0 - - - - - - -
30/09:30am 14.7 NW 22 27 1006.1 - 0.0 - - - - - - -
30/09:00am 14.3 NW 22 26 1006.4 - 0.0 - - - - - - -
30/08:30am 13.8 NW 14 18 1007.0 - 0.0 - - - - - - -
30/08:00am 13.2 WNW 19 23 1007.4 - 0.0 - - - - - - -
30/07:30am 13.0 NW 16 19 1007.7 - 0.0 - - - - - - -
30/07:00am 12.2 NW 12 15 1007.6 - 0.0 - - - - - - -
30/06:30am 12.0 NW 12 13 1007.6 - 0.0 - - - - - - -
30/06:00am 11.6 NW 9 12 1007.5 - 0.0 - - - - - - -
30/05:30am 11.7 NNW 6 10 1007.2 - 0.0 - - - - - - -
30/05:00am 11.1 N 6 7 1007.2 - 0.0 - - - - - - -
30/04:30am 11.4 NNW 5 5 1007.3 - 0.0 - - - - - - -
30/04:00am 11.3 NNW 7 8 1007.8 - 0.0 - - - - - - -
30/03:30am 11.8 NNW 7 9 1008.1 - 0.0 - - - - - - -
30/03:00am 11.8 N 8 11 1008.6 - 0.0 - - - - - - -
30/02:30am 12.1 NNW 10 15 1009.0 - 0.0 - - - - - - -
30/02:00am 12.2 N 13 17 1009.4 - 0.0 - - - - - - -
30/01:30am 12.2 N 13 17 1009.8 - 0.0 - - - - - - -
30/01:00am 12.1 N 18 22 1010.0 - 0.0 - - - - - - -
30/12:30am 12.2 N 16 19 1010.2 - 0.0 - - - - - - -
30/12:00am 12.1 N 16 21 1010.8 - 0.0 - - - - - - -
 
Date/Time
EST
Temp

°C
Wind Pressure Rain
since 9am
mm
Weather Cloud Vis
km
Sea
Height
m
Swell
Dir
 
Speed
knots
Gust
knots
hPa Trend Height
m
Period
s
Dir
29/11:30pm 12.0 NNE 15 18 1011.0 - 0.0 - - - - - - -
29/11:00pm 12.1 NNE 16 18 1011.3 - 0.0 - - - - - - -
29/10:30pm 11.9 NNE 16 18 1011.6 - 0.0 - - - - - - -
29/10:00pm 11.8 NNE 15 17 1011.9 - 0.0 - - - - - - -
29/09:30pm 11.5 NNE 11 13 1012.2 - 0.0 - - - - - - -
29/09:00pm 11.4 NNE 11 14 1012.3 - 0.0 - - - - - - -
29/08:30pm 11.2 N 8 13 1012.3 - 0.0 - - - - - - -
29/08:00pm 11.6 SW 13 14 1011.2 - 0.0 - - - - - - -
29/07:30pm 11.5 E 4 15 1011.6 - 0.0 - - - - - - -
29/07:00pm 11.8 SW 11 16 1010.7 - 0.0 - - - - - - -
29/06:30pm 12.2 WSW 15 18 1010.6 - 0.0 - - - - - - -
29/06:00pm 12.8 W 16 17 1010.4 - 0.0 - - - - - - -
29/05:30pm 13.6 WSW 14 15 1010.3 - 0.0 - - - - - - -
29/05:00pm 14.3 WSW 15 18 1010.2 - 0.0 - - - - - - -
29/04:30pm 14.7 WSW 20 22 1009.9 - 0.0 - - - - - - -
29/04:00pm 14.8 W 26 29 1009.8 - 0.0 - - - - - - -
29/03:30pm 15.4 W 26 30 1009.9 - 0.0 - - - - - - -
29/03:00pm 15.7 W 26 31 1010.3 - 0.0 - - - - - - -
29/02:30pm 15.6 W 31 35 1010.1 - 0.0 - - - - - - -
29/02:00pm 15.4 W 27 32 1010.4 - 0.0 - - - - - - -
29/01:30pm 15.7 W 23 26 1010.7 - 0.0 - - - - - - -
29/01:00pm 16.0 W 21 26 1011.3 - 0.0 - - - - - - -
29/12:30pm 16.1 W 18 22 1011.5 - 0.0 - - - - - - -
29/12:00pm 15.8 W 22 26 1011.6 - 0.0 - - - - - - -
29/11:30am 15.5 WNW 23 27 1011.5 - 0.0 - - - - - - -
29/11:00am 15.0 W 24 28 1011.8 - 0.0 - - - - - - -
29/10:30am 14.6 W 31 36 1011.5 - 0.0 - - - - - - -
29/10:00am 14.7 W 29 33 1011.4 - 0.0 - - - - - - -
29/09:30am 14.3 W 27 32 1011.3 - 0.0 - - - - - - -
29/09:00am 13.9 W 25 31 1011.4 - 0.4 - - - - - - -
29/08:30am 13.1 W 30 38 1010.7 - 0.4 - - - - - - -
29/08:00am 13.5 W 31 36 1010.4 - 0.4 - - - - - - -
29/07:30am 13.0 W 31 38 1009.3 - 0.4 - - - - - - -
29/07:00am 12.7 W 27 32 1009.7 - 0.4 - - - - - - -
29/06:30am 12.4 W 31 38 1009.4 - 0.4 - - - - - - -
29/06:00am 13.1 WNW 34 41 1008.2 - 0.4 - - - - - - -
29/05:30am 13.1 WNW 36 45 1007.5 - 0.4 - - - - - - -
29/05:27am 13.2 WNW 35 45 1007.6 - 0.4 - - - - - - -
29/05:25am 13.2 WNW 36 45 1007.5 - 0.4 - - - - - - -
29/05:00am 13.0 WNW 30 35 1007.6 - 0.4 - - - - - - -
29/04:30am 13.0 WNW 27 35 1007.2 - 0.4 - - - - - - -

Other Formats:

Comma delimited format used in spreadsheet applications
http://www.bom.gov.au/fwo/IDT60701/IDT60701.94949.axf

JavaScript Object Notation format (JSON) in row-major order
http://www.bom.gov.au/fwo/IDT60701/IDT60701.94949.json